Time;durP1;ratioP1;P1;durP2;ratioP2;P2;SDS_P1;SDS_P2;PMS_P1;PMS_P2;Temp;Humidity;BMP_temperature;BMP_pressure;BME280_temperature;BME280_humidity;BME280_pressure;Samples;Min_cycle;Max_cycle;Signal;HPM_P1;HPM_P2
2023/01/25 00:01:32;;;;;;;1999.90;999.90;;;7.10;99.90;;;;;;4952583;28;20393;-82
2023/01/25 00:03:58;;;;;;;1999.90;999.90;;;8.00;99.90;;;;;;4955473;29;20070;-82
2023/01/25 00:06:24;;;;;;;1999.90;999.90;;;7.50;99.90;;;;;;4956273;29;20058;-81
2023/01/25 00:08:50;;;;;;;1999.90;999.90;;;7.00;99.90;;;;;;4943808;29;20146;-82
2023/01/25 00:11:16;;;;;;;1999.90;999.90;;;7.90;99.90;;;;;;4948638;29;20408;-81
2023/01/25 00:13:42;;;;;;;1999.90;999.90;;;7.50;99.90;;;;;;4954778;28;20126;-82
2023/01/25 00:16:08;;;;;;;1999.90;999.90;;;7.90;99.90;;;;;;4953973;28;20130;-82
2023/01/25 00:18:34;;;;;;;1999.90;999.90;;;8.30;99.90;;;;;;4955113;28;20127;-82
2023/01/25 00:21:15;;;;;;;1999.90;999.90;;;7.30;99.90;;;;;;4945245;28;20050;-81
2023/01/25 00:23:40;;;;;;;1999.90;999.90;;;7.30;99.90;;;;;;4956012;29;20484;-82
2023/01/25 00:26:06;;;;;;;1999.90;999.90;;;7.40;99.90;;;;;;4942599;28;20043;-81
2023/01/25 00:28:32;;;;;;;1999.90;999.90;;;7.50;99.90;;;;;;4953728;29;20043;-80
2023/01/25 00:30:59;;;;;;;1999.90;999.90;;;7.40;99.90;;;;;;4943568;28;20047;-80
2023/01/25 00:33:34;;;;;;;1999.90;999.90;;;8.40;99.90;;;;;;4948892;28;20091;-79
2023/01/25 00:36:00;;;;;;;1999.90;999.90;;;7.40;99.90;;;;;;4957715;29;20047;-79
2023/01/25 00:38:37;;;;;;;1999.90;999.90;;;8.10;99.90;;;;;;4957406;29;20381;-79
2023/01/25 00:41:02;;;;;;;1999.90;999.90;;;8.40;99.90;;;;;;4952966;29;20043;-80
2023/01/25 00:43:28;;;;;;;1999.90;999.90;;;7.40;99.90;;;;;;4950027;28;20507;-79
2023/01/25 00:46:00;;;;;;;1999.90;999.90;;;7.80;99.90;;;;;;4935647;29;20055;-81
2023/01/25 00:48:25;;;;;;;1999.90;999.90;;;7.40;99.90;;;;;;4951057;28;20512;-80
2023/01/25 00:50:51;;;;;;;1999.90;999.90;;;7.60;99.90;;;;;;4953073;28;20044;-80
2023/01/25 00:53:17;;;;;;;1999.90;999.90;;;7.40;99.90;;;;;;4954139;28;20055;-79
2023/01/25 00:55:53;;;;;;;1999.90;999.90;;;7.10;99.90;;;;;;4955012;28;20051;-80
2023/01/25 00:58:19;;;;;;;1999.90;999.90;;;7.30;99.90;;;;;;4955469;28;20133;-79
2023/01/25 01:00:44;;;;;;;1999.90;999.90;;;7.20;99.90;;;;;;4937540;29;20156;-80
2023/01/25 01:03:10;;;;;;;1999.90;999.90;;;7.40;99.90;;;;;;4952803;29;20055;-80
2023/01/25 01:05:36;;;;;;;1999.90;999.90;;;7.20;99.90;;;;;;4954797;29;20051;-83
2023/01/25 01:08:02;;;;;;;1999.90;999.90;;;8.30;99.90;;;;;;4954100;28;20170;-79
2023/01/25 01:10:28;;;;;;;1999.90;999.90;;;7.40;99.90;;;;;;4954954;28;20484;-79
2023/01/25 01:12:54;;;;;;;1999.90;999.90;;;10.80;99.90;;;;;;4953919;28;20058;-80
2023/01/25 01:15:20;;;;;;;1999.90;999.90;;;;;;;;;;4954527;29;20484;-80
2023/01/25 01:17:46;;;;;;;1999.90;999.90;;;;;;;;;;4937533;29;20039;-80
2023/01/25 01:20:12;;;;;;;1999.90;999.90;;;7.40;99.90;;;;;;4954980;28;20137;-80
2023/01/25 01:22:38;;;;;;;1999.90;999.90;;;8.70;99.90;;;;;;4953055;28;20158;-81
2023/01/25 01:25:04;;;;;;;1999.90;999.90;;;7.80;99.90;;;;;;4950989;28;20050;-79
2023/01/25 01:27:30;;;;;;;1999.90;999.90;;;7.50;99.90;;;;;;4951445;28;20047;-81
2023/01/25 01:29:55;;;;;;;1999.90;999.90;;;8.50;99.90;;;;;;4948898;28;20058;-80
2023/01/25 01:32:21;;;;;;;1999.90;999.90;;;7.40;99.90;;;;;;4944255;29;20439;-79
2023/01/25 01:34:47;;;;;;;1999.90;999.90;;;7.90;99.90;;;;;;4951731;28;20051;-80
2023/01/25 01:37:12;;;;;;;1999.90;999.90;;;8.20;99.90;;;;;;4945232;28;20074;-79
2023/01/25 01:39:38;;;;;;;1999.90;999.90;;;7.50;99.90;;;;;;4941976;28;20098;-79
2023/01/25 01:42:04;;;;;;;1999.90;999.90;;;8.20;99.90;;;;;;4954541;28;20051;-79
2023/01/25 01:44:47;;;;;;;1999.90;999.90;;;7.40;99.90;;;;;;4940884;29;20062;-79
2023/01/25 01:47:38;;;;;;;1999.90;999.90;;;6.90;99.90;;;;;;4944190;29;20110;-79
2023/01/25 01:50:20;;;;;;;1999.90;999.90;;;7.20;99.90;;;;;;4950950;29;20074;-79
2023/01/25 01:52:46;;;;;;;1999.90;999.90;;;8.60;99.90;;;;;;4950994;29;20050;-79
2023/01/25 01:55:17;;;;;;;1999.90;999.90;;;8.40;99.90;;;;;;4950638;28;20047;-79
2023/01/25 01:57:47;;;;;;;1999.90;999.90;;;9.10;99.90;;;;;;4952450;29;20079;-79
2023/01/25 02:00:17;;;;;;;1999.90;999.90;;;7.50;99.90;;;;;;4949125;28;20134;-82
2023/01/25 02:02:43;;;;;;;1999.90;999.90;;;8.20;99.90;;;;;;4939368;29;20054;-80
2023/01/25 02:05:18;;;;;;;1999.90;999.90;;;8.00;99.90;;;;;;4954260;29;20058;-79
2023/01/25 02:07:46;;;;;;;1999.90;999.90;;;8.10;99.90;;;;;;4951734;29;20104;-85
2023/01/25 02:10:12;;;;;;;;;;;7.20;99.90;;;;;;4952747;29;20125;-84
2023/01/25 02:12:39;;;;;;;1999.90;999.90;;;7.30;99.90;;;;;;4967161;28;21679;-80
2023/01/25 02:15:05;;;;;;;1999.90;999.90;;;5.60;99.90;;;;;;4936176;29;20059;-79
2023/01/25 02:17:35;;;;;;;1999.90;999.90;;;7.20;99.90;;;;;;4952386;28;20043;-83
2023/01/25 02:20:25;;;;;;;1999.90;999.90;;;8.70;99.90;;;;;;4953921;29;20043;-79
2023/01/25 02:23:10;;;;;;;1999.90;999.90;;;6.80;99.90;;;;;;4948803;28;20090;-79
2023/01/25 02:25:36;;;;;;;1999.90;999.90;;;9.00;99.90;;;;;;4934788;29;20059;-80
2023/01/25 02:28:10;;;;;;;1999.90;999.90;;;7.20;99.90;;;;;;4966851;28;20051;-80
2023/01/25 02:30:36;;;;;;;1999.90;999.90;;;7.20;99.90;;;;;;4953730;29;20047;-80
2023/01/25 02:33:02;;;;;;;1999.90;999.90;;;7.20;99.90;;;;;;4946225;28;20043;-79
2023/01/25 02:35:50;;;;;;;1999.90;999.90;;;6.00;99.90;;;;;;4953287;28;20051;-79
2023/01/25 02:38:18;;;;;;;1999.90;999.90;;;7.20;99.90;;;;;;4954640;28;20385;-79
2023/01/25 02:40:45;;;;;;;;;;;7.10;99.90;;;;;;4957472;28;20054;-79
2023/01/25 02:43:12;;;;;;;1999.90;999.90;;;7.30;99.90;;;;;;4953365;29;19970;-81
2023/01/25 02:45:38;;;;;;;1999.90;999.90;;;7.10;99.90;;;;;;4956651;29;20058;-79
2023/01/25 02:48:04;;;;;;;1999.90;999.90;;;7.00;99.90;;;;;;4952464;28;20047;-83
2023/01/25 02:50:29;;;;;;;1999.90;999.90;;;7.50;99.90;;;;;;4940173;28;20098;-80
2023/01/25 02:52:55;;;;;;;1999.90;999.90;;;7.50;99.90;;;;;;4954037;28;20051;-80
2023/01/25 02:55:21;;;;;;;1999.90;999.90;;;7.00;99.90;;;;;;4954451;29;20045;-79
2023/01/25 02:57:46;;;;;;;1999.90;999.90;;;7.30;99.90;;;;;;4956811;28;20369;-79
2023/01/25 03:00:12;;;;;;;1999.90;999.90;;;8.50;99.90;;;;;;4918981;29;20047;-84
2023/01/25 03:02:39;;;;;;;1999.90;999.90;;;;;;;;;;4955418;29;20051;-79
2023/01/25 03:05:05;;;;;;;1999.90;999.90;;;7.20;99.90;;;;;;4956246;28;20134;-80
2023/01/25 03:07:30;;;;;;;1999.90;999.90;;;5.60;99.90;;;;;;4946043;29;20115;-79
2023/01/25 03:09:56;;;;;;;1999.90;999.90;;;6.90;99.90;;;;;;4946674;28;20118;-80
2023/01/25 03:12:22;;;;;;;1999.90;999.90;;;7.70;99.90;;;;;;4953911;29;20075;-79
2023/01/25 03:14:47;;;;;;;1999.90;999.90;;;7.00;99.90;;;;;;4938737;29;20130;-80
2023/01/25 03:17:13;;;;;;;1999.90;999.90;;;6.30;99.90;;;;;;4948861;29;20048;-80
2023/01/25 03:19:38;;;;;;;1999.90;999.90;;;7.80;99.90;;;;;;4965391;28;20054;-80
2023/01/25 03:22:05;;;;;;;1999.90;999.90;;;7.20;99.90;;;;;;4944834;28;20056;-79
2023/01/25 03:24:31;;;;;;;1999.90;999.90;;;7.60;99.90;;;;;;4956061;28;20059;-79
2023/01/25 03:27:17;;;;;;;1999.90;999.90;;;7.40;99.90;;;;;;4955047;28;20047;-81
2023/01/25 03:29:43;;;;;;;1999.90;999.90;;;8.70;99.90;;;;;;4953678;29;20062;-80
2023/01/25 03:32:09;;;;;;;1999.90;999.90;;;6.70;99.90;;;;;;4954332;28;20122;-82
2023/01/25 03:34:35;;;;;;;1999.90;999.90;;;6.90;99.90;;;;;;4944785;29;20126;-80
2023/01/25 03:37:01;;;;;;;1999.90;999.90;;;7.10;99.90;;;;;;4955074;29;20039;-80
2023/01/25 03:39:27;;;;;;;1999.90;999.90;;;7.40;99.90;;;;;;4955004;29;20121;-82
2023/01/25 03:41:53;;;;;;;1999.90;999.90;;;;;;;;;;4951454;28;20137;-86
2023/01/25 03:44:20;;;;;;;1999.90;999.90;;;;;;;;;;4955918;28;20058;-83
2023/01/25 03:46:45;;;;;;;1999.90;999.90;;;6.80;99.90;;;;;;4953100;29;20082;-80
2023/01/25 03:49:11;;;;;;;1999.90;999.90;;;6.30;99.90;;;;;;4950120;28;20131;-80
2023/01/25 03:51:37;;;;;;;1999.90;999.90;;;7.10;99.90;;;;;;4949314;29;20381;-79
2023/01/25 03:54:03;;;;;;;1999.90;999.90;;;8.40;99.90;;;;;;4955691;28;20062;-80
2023/01/25 03:56:30;;;;;;;1999.90;999.90;;;6.80;99.90;;;;;;4956465;29;20051;-80
2023/01/25 03:58:56;;;;;;;1999.90;999.90;;;;;;;;;;4956372;28;20057;-86
2023/01/25 04:01:21;;;;;;;1999.90;999.90;;;6.60;99.90;;;;;;4953665;28;20507;-79
2023/01/25 04:03:47;;;;;;;1999.90;999.90;;;6.90;99.90;;;;;;4956438;29;20135;-80
2023/01/25 04:06:13;;;;;;;1999.90;999.90;;;8.00;99.90;;;;;;4949688;28;20136;-80
2023/01/25 04:08:38;;;;;;;1999.90;999.90;;;6.90;99.90;;;;;;4945252;29;20496;-80
2023/01/25 04:11:08;;;;;;;1999.90;999.90;;;6.90;99.90;;;;;;4954700;28;20138;-80
2023/01/25 04:13:35;;;;;;;1999.90;999.90;;;6.90;99.90;;;;;;4955366;29;20377;-80
2023/01/25 04:16:06;;;;;;;1999.90;999.90;;;8.10;99.90;;;;;;4955415;28;20059;-80
2023/01/25 04:18:32;;;;;;;1999.90;999.90;;;7.00;99.90;;;;;;4956227;28;20407;-80
2023/01/25 04:20:58;;;;;;;1999.90;999.90;;;7.50;99.90;;;;;;4954827;28;20122;-84
2023/01/25 04:23:25;;;;;;;1999.90;999.90;;;8.10;99.90;;;;;;4953579;29;20114;-81
2023/01/25 04:25:54;;;;;;;1999.90;999.90;;;6.70;99.90;;;;;;4954562;29;20047;-81
2023/01/25 04:28:20;;;;;;;1999.90;999.90;;;6.90;99.90;;;;;;4955558;28;20469;-80
2023/01/25 04:30:46;;;;;;;1999.90;999.90;;;6.90;99.90;;;;;;4955228;29;20055;-80
2023/01/25 04:33:12;;;;;;;1999.90;999.90;;;7.30;99.90;;;;;;4944540;29;20138;-80
2023/01/25 04:35:38;;;;;;;1999.90;999.90;;;7.00;99.90;;;;;;4936686;29;20063;-80
2023/01/25 04:38:04;;;;;;;1999.90;999.90;;;8.60;99.90;;;;;;4935934;29;20456;-80
2023/01/25 04:40:30;;;;;;;1999.90;999.90;;;6.70;99.90;;;;;;4937332;29;20098;-83
2023/01/25 04:42:56;;;;;;;1999.90;999.90;;;7.00;99.90;;;;;;4937656;28;20131;-83
2023/01/25 04:45:24;;;;;;;1999.90;999.90;;;5.90;99.90;;;;;;4935697;29;20056;-83
2023/01/25 04:48:02;;;;;;;1999.90;999.90;;;6.90;99.90;;;;;;4938864;29;20044;-82
2023/01/25 04:50:28;;;;;;;1999.90;999.90;;;6.60;99.90;;;;;;4953945;29;20117;-83
2023/01/25 04:52:54;;;;;;;1999.90;999.90;;;6.70;99.90;;;;;;4952705;28;20161;-83
2023/01/25 04:55:20;;;;;;;1999.90;999.90;;;6.80;99.90;;;;;;4954244;28;20137;-84
2023/01/25 04:57:48;;;;;;;1999.90;999.90;;;6.40;99.90;;;;;;4953624;28;20102;-84
2023/01/25 05:00:14;;;;;;;1999.90;999.90;;;7.50;99.90;;;;;;4951524;28;20607;-84
2023/01/25 05:02:41;;;;;;;1999.90;999.90;;;6.70;99.90;;;;;;4952653;28;20186;-83
2023/01/25 05:05:07;;;;;;;1999.90;999.90;;;6.40;99.90;;;;;;4953468;29;20051;-83
2023/01/25 05:07:33;;;;;;;1999.90;999.90;;;5.90;99.90;;;;;;4951516;29;20369;-83
2023/01/25 05:09:58;;;;;;;1999.90;999.90;;;6.70;99.90;;;;;;4953194;29;20050;-83
2023/01/25 05:12:24;;;;;;;1999.90;999.90;;;6.70;99.90;;;;;;4935642;29;20187;-87
2023/01/25 05:14:50;;;;;;;1999.90;999.90;;;7.90;99.90;;;;;;4952229;29;20050;-83
2023/01/25 05:17:15;;;;;;;1999.90;999.90;;;6.60;99.90;;;;;;4946720;28;20503;-83
2023/01/25 05:19:41;;;;;;;1999.90;999.90;;;7.70;99.90;;;;;;4955124;28;20118;-83
2023/01/25 05:22:11;;;;;;;1999.90;999.90;;;5.70;99.90;;;;;;4953676;29;20079;-83
2023/01/25 05:24:40;;;;;;;1999.90;999.90;;;6.40;99.90;;;;;;4952168;28;20484;-83
2023/01/25 05:27:07;;;;;;;1999.90;999.90;;;7.00;99.90;;;;;;4934570;29;20047;-83
2023/01/25 05:29:38;;;;;;;1999.90;999.90;;;6.60;99.90;;;;;;4935713;29;20056;-83
2023/01/25 05:32:08;;;;;;;1999.90;999.90;;;7.20;99.90;;;;;;4950570;28;20055;-83
2023/01/25 05:34:35;;;;;;;1999.90;999.90;;;6.60;99.90;;;;;;4948465;29;20094;-85
2023/01/25 05:37:01;;;;;;;1999.90;999.90;;;10.10;99.90;;;;;;4952576;28;20088;-84
2023/01/25 05:39:27;;;;;;;1999.90;999.90;;;6.30;99.90;;;;;;4954242;28;20134;-84
2023/01/25 05:41:53;;;;;;;1999.90;999.90;;;7.50;99.90;;;;;;4949676;29;20118;-84
2023/01/25 05:44:18;;;;;;;1999.90;999.90;;;6.70;99.90;;;;;;4952018;29;20043;-84
2023/01/25 05:46:44;;;;;;;1999.90;999.90;;;6.10;99.90;;;;;;4952872;29;20047;-84
2023/01/25 05:49:11;;;;;;;1999.90;999.90;;;6.10;99.90;;;;;;4950807;29;20126;-85
2023/01/25 05:51:37;;;;;;;1999.90;999.90;;;8.10;99.90;;;;;;4952818;28;20043;-85
2023/01/25 05:54:04;;;;;;;1999.90;999.90;;;6.40;99.90;;;;;;4950294;29;20050;-85
2023/01/25 05:56:30;;;;;;;1999.90;999.90;;;7.00;99.90;;;;;;4952157;29;20066;-84
2023/01/25 05:58:58;;;;;;;1999.90;999.90;;;6.40;99.90;;;;;;4949024;28;20039;-84
2023/01/25 06:01:25;;;;;;;1999.90;999.90;;;8.10;99.90;;;;;;4949793;28;20259;-83
2023/01/25 06:03:52;;;;;;;1999.90;999.90;;;;;;;;;;4949671;28;20500;-83
2023/01/25 06:06:18;;;;;;;1999.90;999.90;;;6.70;99.90;;;;;;4952186;28;20043;-88
2023/01/25 06:08:44;;;;;;;1999.90;999.90;;;8.70;99.90;;;;;;4942291;29;20126;-84
2023/01/25 06:11:13;;;;;;;1999.90;999.90;;;8.90;99.90;;;;;;4948942;28;20373;-85
2023/01/25 06:13:38;;;;;;;1999.90;999.90;;;8.90;99.90;;;;;;4956042;28;20043;-84
2023/01/25 06:16:05;;;;;;;1999.90;999.90;;;7.20;99.90;;;;;;4957363;28;20065;-84
2023/01/25 06:18:32;;;;;;;1999.90;999.90;;;8.70;99.90;;;;;;4959188;29;20433;-84
2023/01/25 06:20:59;;;;;;;1999.90;999.90;;;6.80;99.90;;;;;;4941902;29;20051;-83
2023/01/25 06:23:25;;;;;;;1999.90;999.90;;;7.30;99.90;;;;;;4960493;28;20067;-83
2023/01/25 06:25:52;;;;;;;1999.90;999.90;;;5.90;99.90;;;;;;4956328;28;20130;-84
2023/01/25 06:28:18;;;;;;;1999.90;999.90;;;7.40;99.90;;;;;;4955224;28;20097;-86
2023/01/25 06:30:44;;;;;;;1999.90;999.90;;;7.20;99.90;;;;;;4952135;28;20070;-84
2023/01/25 06:33:09;;;;;;;1999.90;999.90;;;7.30;99.90;;;;;;4951512;28;20043;-84
2023/01/25 06:35:35;;;;;;;1999.90;999.90;;;8.20;99.90;;;;;;4945046;28;20059;-83
2023/01/25 06:38:01;;;;;;;1999.90;999.90;;;6.80;99.90;;;;;;4972505;28;20434;-84
2023/01/25 06:40:27;;;;;;;1999.90;999.90;;;6.70;99.90;;;;;;4960320;28;20121;-84
2023/01/25 06:42:53;;;;;;;1999.90;999.90;;;6.80;99.90;;;;;;4959727;28;20054;-84
2023/01/25 06:45:19;;;;;;;1999.90;999.90;;;8.00;99.90;;;;;;4957519;28;20039;-83
2023/01/25 06:47:47;;;;;;;1999.90;999.90;;;6.40;99.90;;;;;;4957476;28;20051;-84
2023/01/25 06:50:13;;;;;;;1999.90;999.90;;;6.80;99.90;;;;;;4973412;28;20062;-83
2023/01/25 06:52:39;;;;;;;1999.90;999.90;;;6.70;99.90;;;;;;4957932;29;20055;-83
2023/01/25 06:55:06;;;;;;;1999.90;999.90;;;7.00;99.90;;;;;;4955880;28;20403;-83
2023/01/25 06:57:32;;;;;;;;;;;6.80;99.90;;;;;;4957025;28;20050;-86
2023/01/25 06:59:59;;;;;;;1999.90;999.90;;;8.80;99.90;;;;;;4960650;28;19919;-86
2023/01/25 07:02:24;;;;;;;1999.90;999.90;;;8.20;99.90;;;;;;4965795;28;20069;-84
2023/01/25 07:04:50;;;;;;;1999.90;999.90;;;7.10;99.90;;;;;;4961301;28;20055;-83
2023/01/25 07:07:16;;;;;;;1999.90;999.90;;;;;;;;;;4959767;28;20139;-87
2023/01/25 07:09:42;;;;;;;1999.90;999.90;;;8.00;99.90;;;;;;4959391;29;20035;-83
2023/01/25 07:12:08;;;;;;;1999.90;999.90;;;8.20;99.90;;;;;;4960533;29;20464;-81
2023/01/25 07:14:33;;;;;;;1999.90;999.90;;;6.50;99.90;;;;;;4958387;28;20480;-81
2023/01/25 07:17:00;;;;;;;1999.90;999.90;;;;;;;;;;4960136;28;20049;-82
2023/01/25 07:19:25;;;;;;;1999.90;999.90;;;7.00;99.90;;;;;;4976272;28;20050;-82
2023/01/25 07:21:51;;;;;;;1999.90;999.90;;;6.90;99.90;;;;;;4967820;28;20039;-81
2023/01/25 07:24:18;;;;;;;1999.90;999.90;;;5.70;99.90;;;;;;4957830;28;20126;-87
2023/01/25 07:26:45;;;;;;;1999.90;999.90;;;7.00;99.90;;;;;;4954140;28;20126;-83
2023/01/25 07:29:13;;;;;;;1999.90;999.90;;;6.60;99.90;;;;;;4954338;28;20078;-83
2023/01/25 07:31:40;;;;;;;1999.90;999.90;;;6.70;99.90;;;;;;4954539;29;20130;-84
2023/01/25 07:34:08;;;;;;;1999.90;999.90;;;5.40;99.90;;;;;;4951143;29;20495;-83
2023/01/25 07:36:34;;;;;;;1999.90;999.90;;;6.50;99.90;;;;;;4953554;28;20077;-83
2023/01/25 07:39:00;;;;;;;1999.90;999.90;;;6.60;99.90;;;;;;4955336;28;20465;-84
2023/01/25 07:41:26;;;;;;;1999.90;999.90;;;6.90;99.90;;;;;;4955686;29;20054;-83
2023/01/25 07:43:52;;;;;;;1999.90;999.90;;;7.40;99.90;;;;;;4957044;28;20047;-83
2023/01/25 07:46:19;;;;;;;1999.90;999.90;;;6.70;99.90;;;;;;4956493;28;20106;-83
2023/01/25 07:48:49;;;;;;;1999.90;999.90;;;6.70;99.90;;;;;;4956607;28;20058;-82
2023/01/25 07:51:25;;;;;;;1999.90;999.90;;;6.10;99.90;;;;;;4954454;29;20051;-83
2023/01/25 07:53:53;;;;;;;1999.90;999.90;;;7.50;99.90;;;;;;4956563;29;20047;-82
2023/01/25 07:56:21;;;;;;;1999.90;999.90;;;6.20;99.90;;;;;;4955568;28;20046;-93
2023/01/25 07:58:47;;;;;;;1999.90;999.90;;;8.00;99.90;;;;;;4953883;28;20054;-84
2023/01/25 08:01:15;;;;;;;1999.90;999.90;;;7.40;99.90;;;;;;4965895;28;20423;-84
2023/01/25 08:03:42;;;;;;;1999.90;999.90;;;7.60;99.90;;;;;;4954769;28;20047;-82
2023/01/25 08:06:09;;;;;;;1999.90;999.90;;;6.60;99.90;;;;;;4955179;28;20069;-83
2023/01/25 08:08:41;;;;;;;1999.90;999.90;;;6.90;99.90;;;;;;4953975;28;20130;-82
2023/01/25 08:11:16;;;;;;;1999.90;999.90;;;6.70;99.90;;;;;;4954517;29;20223;-82
2023/01/25 08:13:48;;;;;;;1999.90;999.90;;;7.70;99.90;;;;;;4954458;28;20031;-83
2023/01/25 08:16:16;;;;;;;1999.90;999.90;;;6.80;99.90;;;;;;4949225;29;20047;-85
2023/01/25 08:18:42;;;;;;;1999.90;999.90;;;6.70;99.90;;;;;;4955055;28;20074;-83
2023/01/25 08:21:08;;;;;;;1999.90;999.90;;;6.70;99.90;;;;;;4954002;29;20480;-84
2023/01/25 08:23:33;;;;;;;1999.90;999.90;;;6.60;99.90;;;;;;4951569;28;20050;-83
2023/01/25 08:26:04;;;;;;;1999.90;999.90;;;7.40;99.90;;;;;;4952873;29;20041;-83
2023/01/25 08:28:29;;;;;;;1999.90;999.90;;;6.60;99.90;;;;;;4954086;29;20138;-83
2023/01/25 08:31:07;;;;;;;1999.90;999.90;;;8.60;99.90;;;;;;4954121;28;20126;-83
2023/01/25 08:33:34;;;;;;;1999.90;999.90;;;6.80;99.90;;;;;;4943055;29;20090;-83
2023/01/25 08:35:59;;;;;;;1999.90;999.90;;;7.10;99.90;;;;;;4953434;28;20049;-84
2023/01/25 08:38:25;;;;;;;1999.90;999.90;;;6.30;99.90;;;;;;4954399;28;20043;-84
2023/01/25 08:40:51;;;;;;;1999.90;999.90;;;7.80;99.90;;;;;;4952056;28;20047;-82
2023/01/25 08:43:17;;;;;;;1999.90;999.90;;;6.80;99.90;;;;;;4945343;28;20499;-82
2023/01/25 08:45:42;;;;;;;1999.90;999.90;;;6.60;99.90;;;;;;4944025;28;20043;-82
2023/01/25 08:48:09;;;;;;;1999.90;999.90;;;7.80;99.90;;;;;;4954776;28;20418;-82
2023/01/25 08:50:34;;;;;;;1999.90;999.90;;;7.00;99.90;;;;;;4949133;28;20075;-83
2023/01/25 08:53:00;;;;;;;1999.90;999.90;;;6.80;99.90;;;;;;4943434;28;20097;-83
2023/01/25 08:55:26;;;;;;;1999.90;999.90;;;6.90;99.90;;;;;;4949468;28;20051;-82
2023/01/25 08:57:51;;;;;;;1999.90;999.90;;;7.10;99.90;;;;;;4955165;29;20043;-83
2023/01/25 09:00:18;;;;;;;1999.90;999.90;;;7.40;99.90;;;;;;4951307;28;20064;-84
2023/01/25 09:02:44;;;;;;;1999.90;999.90;;;6.50;99.90;;;;;;4953543;28;20146;-82
2023/01/25 09:05:10;;;;;;;1999.90;999.90;;;5.10;99.90;;;;;;4953454;29;20539;-82
2023/01/25 09:07:37;;;;;;;1999.90;999.90;;;7.10;99.90;;;;;;4953401;29;20047;-83
2023/01/25 09:10:07;;;;;;;1999.90;999.90;;;6.60;99.90;;;;;;4952321;29;20047;-83
2023/01/25 09:12:34;;;;;;;1999.90;999.90;;;6.90;99.90;;;;;;4937477;28;20047;-83
2023/01/25 09:15:01;;;;;;;1999.90;999.90;;;6.40;99.90;;;;;;4947598;28;20047;-82
2023/01/25 09:17:27;;;;;;;1999.90;999.90;;;7.80;99.90;;;;;;4934862;29;20760;-85
2023/01/25 09:19:52;;;;;;;1999.90;999.90;;;7.00;99.90;;;;;;4936028;29;20175;-83
2023/01/25 09:22:18;;;;;;;1999.90;999.90;;;8.30;99.90;;;;;;4950652;28;20094;-85
2023/01/25 09:24:43;;;;;;;1999.90;999.90;;;7.20;99.90;;;;;;4952879;28;20054;-82
2023/01/25 09:27:09;;;;;;;1999.90;999.90;;;7.90;99.90;;;;;;4951783;29;20174;-83
2023/01/25 09:29:35;;;;;;;1999.90;999.90;;;6.80;99.90;;;;;;4954561;29;20043;-84
2023/01/25 09:32:01;;;;;;;1999.90;999.90;;;;;;;;;;4946988;28;20039;-84
2023/01/25 09:34:27;;;;;;;1999.90;999.90;;;6.90;99.90;;;;;;4939142;28;20042;-84
2023/01/25 09:36:53;;;;;;;1999.90;999.90;;;6.80;99.90;;;;;;4953568;28;20043;-83
2023/01/25 09:39:19;;;;;;;1999.90;999.90;;;6.80;99.90;;;;;;4954589;28;20043;-83
2023/01/25 09:42:19;;;;;;;1999.90;999.90;;;7.40;99.90;;;;;;4950481;28;20051;-84
2023/01/25 09:44:59;;;;;;;1999.90;999.90;;;6.50;99.90;;;;;;4935158;29;20098;-83
2023/01/25 09:47:51;;;;;;;1999.90;999.90;;;8.60;99.90;;;;;;4934527;28;20126;-82
2023/01/25 09:50:33;;;;;;;1999.90;999.90;;;8.10;99.90;;;;;;4935429;29;20051;-85
2023/01/25 09:52:59;;;;;;;1999.90;999.90;;;6.60;99.90;;;;;;4934549;29;20045;-83
2023/01/25 09:55:28;;;;;;;1999.90;999.90;;;7.90;99.90;;;;;;4953835;28;20051;-82
2023/01/25 09:57:58;;;;;;;1999.90;999.90;;;6.70;99.90;;;;;;4949504;28;20503;-83
2023/01/25 10:00:41;;;;;;;1999.90;999.90;;;6.90;99.90;;;;;;4960679;28;20050;-84
2023/01/25 10:03:30;;;;;;;1999.90;999.90;;;7.10;99.90;;;;;;4934218;29;20058;-84
2023/01/25 10:05:58;;;;;;;;;;;7.00;99.90;;;;;;4936798;29;20043;-84
2023/01/25 10:08:49;;;;;;;1999.90;999.90;;;7.30;99.90;;;;;;4918027;29;20013;-83
2023/01/25 10:11:25;;;;;;;1999.90;999.90;;;7.00;99.90;;;;;;4938252;29;20079;-83
2023/01/25 10:13:54;;;;;;;1999.90;999.90;;;7.00;99.90;;;;;;4935074;28;20617;-83
2023/01/25 10:16:56;;;;;;;1999.90;999.90;;;8.20;99.90;;;;;;4944045;29;20476;-83
2023/01/25 10:19:47;;;;;;;1999.90;999.90;;;6.90;99.90;;;;;;4921076;28;20392;-82
2023/01/25 10:22:19;;;;;;;1999.90;999.90;;;6.30;99.90;;;;;;4951138;28;20043;-83
2023/01/25 10:25:20;;;;;;;1999.90;999.90;;;7.00;99.90;;;;;;4953019;28;20051;-83
2023/01/25 10:28:30;;;;;;;1999.90;999.90;;;6.60;99.90;;;;;;4951835;29;20365;-83
2023/01/25 10:31:05;;;;;;;1999.90;999.90;;;7.10;99.90;;;;;;4953214;29;20043;-83
2023/01/25 10:33:34;;;;;;;1999.90;999.90;;;7.10;99.90;;;;;;4954042;28;20440;-84
2023/01/25 10:36:02;;;;;;;1999.90;999.90;;;5.30;99.90;;;;;;4953507;28;20036;-83
2023/01/25 10:38:44;;;;;;;1999.90;999.90;;;7.50;99.90;;;;;;4941474;29;20492;-83
2023/01/25 10:41:21;;;;;;;1999.90;999.90;;;6.90;99.90;;;;;;4933793;29;20115;-83
2023/01/25 10:44:20;;;;;;;1999.90;999.90;;;6.90;99.90;;;;;;4934549;29;20477;-82
2023/01/25 10:46:33;;;;;;;1999.90;999.90;;;8.00;99.90;;;;;;4933428;29;20048;-83
2023/01/25 10:49:12;;;;;;;1999.90;999.90;;;8.60;99.90;;;;;;4952428;28;20174;-82
2023/01/25 10:51:37;;;;;;;1999.90;999.90;;;8.40;99.90;;;;;;4952480;29;20042;-82
2023/01/25 10:54:05;;;;;;;1999.90;999.90;;;6.90;99.90;;;;;;4954344;28;20055;-83
2023/01/25 10:56:38;;;;;;;1999.90;999.90;;;6.70;99.90;;;;;;4953932;28;20039;-82
2023/01/25 10:59:17;;;;;;;1999.90;999.90;;;6.90;99.90;;;;;;4954461;28;20047;-83
2023/01/25 11:01:44;;;;;;;1999.90;999.90;;;5.30;99.90;;;;;;4956593;28;20039;-83
2023/01/25 11:04:33;;;;;;;1999.90;999.90;;;8.00;99.90;;;;;;4956991;28;20126;-83
2023/01/25 11:07:01;;;;;;;1999.90;999.90;;;7.00;99.90;;;;;;4957436;28;20086;-83
2023/01/25 11:09:35;;;;;;;1999.90;999.90;;;7.00;99.90;;;;;;4956680;28;20054;-83
2023/01/25 11:12:06;;;;;;;1999.90;999.90;;;9.90;99.90;;;;;;4955476;28;20095;-83
2023/01/25 11:14:32;;;;;;;1999.90;999.90;;;5.10;99.90;;;;;;4957386;29;20101;-83
2023/01/25 11:17:00;;;;;;;1999.90;999.90;;;7.50;99.90;;;;;;4957384;28;20070;-83
2023/01/25 11:19:37;;;;;;;1999.90;999.90;;;8.00;99.90;;;;;;4955989;28;20420;-83
2023/01/25 11:22:20;;;;;;;1999.90;999.90;;;6.90;99.90;;;;;;4956204;28;20098;-85
2023/01/25 11:24:46;;;;;;;1999.90;999.90;;;5.20;99.90;;;;;;4957118;28;20099;-83
2023/01/25 11:27:19;;;;;;;1999.90;999.90;;;7.00;99.90;;;;;;4956743;29;20032;-83
2023/01/25 11:30:05;;;;;;;1999.90;999.90;;;6.50;99.90;;;;;;4956083;29;20099;-83
2023/01/25 11:32:32;;;;;;;1999.90;999.90;;;6.50;99.90;;;;;;4958794;28;20043;-83
2023/01/25 11:34:58;;;;;;;1999.90;999.90;;;6.30;99.90;;;;;;4959060;28;20046;-83
2023/01/25 11:37:53;;;;;;;1999.90;999.90;;;7.20;99.90;;;;;;4956127;28;20057;-82
2023/01/25 11:40:28;;;;;;;1999.90;999.90;;;7.70;99.90;;;;;;4931858;29;20117;-83
2023/01/25 11:43:18;;;;;;;1999.90;999.90;;;6.90;99.90;;;;;;4937685;29;20048;-83
2023/01/25 11:46:00;;;;;;;1999.90;999.90;;;7.10;99.90;;;;;;4952152;29;20070;-82
2023/01/25 11:48:49;;;;;;;1999.90;999.90;;;7.10;99.90;;;;;;4957028;28;20046;-83
2023/01/25 11:51:40;;;;;;;1999.90;999.90;;;7.10;99.90;;;;;;4954530;29;20059;-83
2023/01/25 11:54:44;;;;;;;1999.90;999.90;;;7.90;99.90;;;;;;4970891;28;20130;-82
2023/01/25 11:57:12;;;;;;;1999.90;999.90;;;7.10;99.90;;;;;;4956814;28;20411;-83
2023/01/25 11:59:52;;;;;;;1999.90;999.90;;;8.20;99.90;;;;;;4943726;28;20191;-82
2023/01/25 12:02:29;;;;;;;1999.90;999.90;;;6.40;99.90;;;;;;4956264;28;20066;-84
2023/01/25 12:05:16;;;;;;;1999.90;999.90;;;8.70;99.90;;;;;;4946220;28;20054;-84
2023/01/25 12:08:14;;;;;;;1999.90;999.90;;;7.10;99.90;;;;;;4946661;29;20468;-84
2023/01/25 12:10:43;;;;;;;1999.90;999.90;;;7.00;99.90;;;;;;4955637;28;20039;-82
2023/01/25 12:13:28;;;;;;;1999.90;999.90;;;7.20;99.90;;;;;;4956775;28;20047;-83
2023/01/25 12:16:16;;;;;;;1999.90;999.90;;;7.20;99.90;;;;;;4936826;29;20051;-83
2023/01/25 12:18:50;;;;;;;1999.90;999.90;;;6.70;99.90;;;;;;4951710;29;20054;-83
2023/01/25 12:21:35;;;;;;;1999.90;999.90;;;7.70;99.90;;;;;;4956384;29;20055;-82
2023/01/25 12:24:20;;;;;;;1999.90;999.90;;;7.40;99.90;;;;;;4954256;29;20043;-82
2023/01/25 12:26:53;;;;;;;1999.90;999.90;;;8.50;99.90;;;;;;4956197;29;20053;-84